Time;durP1;ratioP1;P1;durP2;ratioP2;P2;SDS_P1;SDS_P2;PMS_P1;PMS_P2;Temp;Humidity;BMP_temperature;BMP_pressure;BME280_temperature;BME280_humidity;BME280_pressure;Samples;Min_cycle;Max_cycle;Signal;HPM_P1;HPM_P2
2021/05/10 00:00:31;;;;;;;1.70;0.57;;;;;;;;;;5034946;28;20029;-77
2021/05/10 00:02:57;;;;;;;1.27;0.52;;;;;;;;;;5017892;28;20096;-77
2021/05/10 00:05:24;;;;;;;0.52;0.47;;;;;;;;;;5026183;28;20193;-77
2021/05/10 00:07:50;;;;;;;0.70;0.50;;;;;;;;;;5034537;28;20030;-77
2021/05/10 00:10:16;;;;;;;0.70;0.45;;;;;;;;;;5035060;28;20064;-77
2021/05/10 00:12:42;;;;;;;0.57;0.55;;;;;;;;;;5034934;28;20410;-77
2021/05/10 00:15:08;;;;;;;0.50;0.35;;;;;;;;;;5034979;28;20029;-77
2021/05/10 00:17:34;;;;;;;0.38;0.38;;;;;;;;;;5034984;28;20525;-77
2021/05/10 00:20:00;;;;;;;0.43;0.40;;;;;;;;;;5034703;28;20397;-77
2021/05/10 00:22:26;;;;;;;0.47;0.40;;;;;;;;;;5034590;28;20425;-77
2021/05/10 00:24:52;;;;;;;1.95;0.55;;;;;;;;;;5034677;28;20040;-77
2021/05/10 00:27:18;;;;;;;0.68;0.68;;;;;;;;;;5034408;28;20504;-77
2021/05/10 00:29:45;;;;;;;0.60;0.60;;;;;;;;;;5034642;28;20434;-77
2021/05/10 00:32:11;;;;;;;0.30;0.30;;;;;;;;;;5025259;28;20064;-77
2021/05/10 00:34:37;;;;;;;0.95;0.50;;;;;;;;;;5034373;28;20029;-77
2021/05/10 00:37:03;;;;;;;0.55;0.50;;;;;;;;;;5034295;28;20025;-77
2021/05/10 00:39:29;;;;;;;1.13;0.50;;;;;;;;;;5034152;28;20025;-77
2021/05/10 00:41:56;;;;;;;0.52;0.52;;;;;;;;;;5034951;28;20048;-77
2021/05/10 00:44:22;;;;;;;1.08;0.40;;;;;;;;;;5034160;28;20402;-77
2021/05/10 00:46:48;;;;;;;0.75;0.55;;;;;;;;;;5034793;28;20021;-77
2021/05/10 00:49:14;;;;;;;0.73;0.50;;;;;;;;;;5034829;28;20034;-76
2021/05/10 00:51:40;;;;;;;1.48;0.60;;;;;;;;;;5035144;28;20032;-76
2021/05/10 00:54:07;;;;;;;1.20;0.77;;;;;;;;;;5034089;28;20036;-76
2021/05/10 00:56:33;;;;;;;0.40;0.40;;;;;;;;;;5034708;28;20033;-76
2021/05/10 00:58:59;;;;;;;0.38;0.30;;;;;;;;;;5033519;28;20769;-76
2021/05/10 01:01:25;;;;;;;0.60;0.60;;;;;;;;;;5025757;28;20051;-76
2021/05/10 01:03:53;;;;;;;0.70;0.45;;;;;;;;;;5033914;28;20021;-76
2021/05/10 01:06:19;;;;;;;0.47;0.43;;;;;;;;;;5034069;28;20029;-77
2021/05/10 01:08:46;;;;;;;0.63;0.50;;;;;;;;;;5033572;28;20441;-77
2021/05/10 01:11:12;;;;;;;0.35;0.30;;;;;;;;;;5033218;28;20034;-77
2021/05/10 01:13:38;;;;;;;1.27;0.40;;;;;;;;;;5033135;28;20036;-76
2021/05/10 01:16:04;;;;;;;0.45;0.45;;;;;;;;;;5033748;28;20025;-77
2021/05/10 01:18:31;;;;;;;1.15;0.50;;;;;;;;;;5033361;28;20044;-76
2021/05/10 01:20:59;;;;;;;0.40;0.40;;;;;;;;;;5033002;28;20443;-77
2021/05/10 01:23:25;;;;;;;1.15;0.40;;;;;;;;;;5033554;28;20029;-77
2021/05/10 01:25:52;;;;;;;3.72;0.70;;;;;;;;;;5033428;28;20104;-77
2021/05/10 01:28:18;;;;;;;1.58;0.80;;;;;;;;;;5034350;28;20021;-76
2021/05/10 01:30:49;;;;;;;0.75;0.73;;;;;;;;;;5033866;28;20355;-77
2021/05/10 01:33:15;;;;;;;0.85;0.57;;;;;;;;;;5014538;28;20030;-76
2021/05/10 01:35:46;;;;;;;0.40;0.40;;;;;;;;;;5013714;28;20026;-77
2021/05/10 01:38:12;;;;;;;0.57;0.47;;;;;;;;;;5013289;28;20054;-76
2021/05/10 01:40:38;;;;;;;1.35;0.60;;;;;;;;;;5020725;28;20013;-77
2021/05/10 01:43:05;;;;;;;0.50;0.40;;;;;;;;;;5032718;28;20076;-77
2021/05/10 01:45:31;;;;;;;1.73;0.70;;;;;;;;;;5033321;28;20021;-76
2021/05/10 01:48:04;;;;;;;1.27;0.50;;;;;;;;;;5033388;28;20029;-77
2021/05/10 01:50:30;;;;;;;0.73;0.60;;;;;;;;;;5033148;28;20087;-76
2021/05/10 01:52:57;;;;;;;0.68;0.40;;;;;;;;;;5032642;28;20033;-77
2021/05/10 01:55:23;;;;;;;0.57;0.40;;;;;;;;;;5033250;28;20029;-77
2021/05/10 01:57:50;;;;;;;0.40;0.40;;;;;;;;;;5032881;28;20487;-77
2021/05/10 02:00:18;;;;;;;0.57;0.50;;;;;;;;;;5028474;28;20116;-77
2021/05/10 02:02:44;;;;;;;0.65;0.43;;;;;;;;;;5016066;28;20048;-77
2021/05/10 02:05:12;;;;;;;0.40;0.40;;;;;;;;;;5023651;28;20052;-77
2021/05/10 02:07:39;;;;;;;0.50;0.50;;;;;;;;;;5031288;28;20025;-77
2021/05/10 02:10:07;;;;;;;0.95;0.73;;;;;;;;;;5032709;28;20029;-77
2021/05/10 02:12:33;;;;;;;0.85;0.40;;;;;;;;;;5031593;28;20029;-77
2021/05/10 02:14:59;;;;;;;0.35;0.35;;;;;;;;;;5032260;28;20742;-77
2021/05/10 02:17:25;;;;;;;0.40;0.40;;;;;;;;;;5032439;28;20052;-77
2021/05/10 02:19:51;;;;;;;1.08;0.40;;;;;;;;;;5032663;28;20096;-77
2021/05/10 02:22:17;;;;;;;0.57;0.40;;;;;;;;;;5031999;28;20488;-77
2021/05/10 02:24:43;;;;;;;0.40;0.40;;;;;;;;;;5032655;28;20025;-77
2021/05/10 02:27:09;;;;;;;0.45;0.45;;;;;;;;;;5032515;28;20029;-77
2021/05/10 02:29:35;;;;;;;1.90;0.50;;;;;;;;;;5032014;28;20076;-77
2021/05/10 02:32:01;;;;;;;0.43;0.43;;;;;;;;;;5023952;28;20025;-77
2021/05/10 02:34:28;;;;;;;0.40;0.40;;;;;;;;;;5031177;28;20125;-77
2021/05/10 02:36:54;;;;;;;0.60;0.60;;;;;;;;;;5032137;28;20025;-77
2021/05/10 02:39:20;;;;;;;0.75;0.50;;;;;;;;;;5032351;28;20022;-77
2021/05/10 02:41:46;;;;;;;0.32;0.32;;;;;;;;;;5032700;28;20071;-77
2021/05/10 02:44:12;;;;;;;1.15;0.60;;;;;;;;;;5032275;28;20090;-77
2021/05/10 02:46:38;;;;;;;0.52;0.52;;;;;;;;;;5032662;28;20036;-77
2021/05/10 02:49:04;;;;;;;0.60;0.52;;;;;;;;;;5032399;28;20093;-77
2021/05/10 02:51:30;;;;;;;0.60;0.57;;;;;;;;;;5032187;28;20037;-77
2021/05/10 02:53:56;;;;;;;0.73;0.68;;;;;;;;;;5031741;28;20429;-77
2021/05/10 02:56:23;;;;;;;0.60;0.60;;;;;;;;;;5032174;28;20036;-77
2021/05/10 02:58:49;;;;;;;0.40;0.40;;;;;;;;;;5031832;28;20131;-77
2021/05/10 03:01:15;;;;;;;0.40;0.40;;;;;;;;;;5023705;28;20022;-76
2021/05/10 03:03:41;;;;;;;0.60;0.60;;;;;;;;;;5031429;28;20064;-76
2021/05/10 03:06:08;;;;;;;0.43;0.40;;;;;;;;;;5031612;28;20025;-77
2021/05/10 03:08:34;;;;;;;0.30;0.30;;;;;;;;;;5030429;28;20470;-76
2021/05/10 03:11:00;;;;;;;0.40;0.40;;;;;;;;;;5030824;28;20033;-76
2021/05/10 03:13:26;;;;;;;0.63;0.40;;;;;;;;;;5035169;28;20458;-76
2021/05/10 03:15:52;;;;;;;0.38;0.38;;;;;;;;;;5036020;28;20374;-76
2021/05/10 03:18:18;;;;;;;1.30;0.70;;;;;;;;;;5035155;28;20331;-76
2021/05/10 03:20:44;;;;;;;0.77;0.30;;;;;;;;;;5035700;28;20422;-76
2021/05/10 03:23:10;;;;;;;0.52;0.45;;;;;;;;;;5035200;28;20390;-76
2021/05/10 03:25:36;;;;;;;0.25;0.25;;;;;;;;;;5035636;28;20393;-76
2021/05/10 03:28:02;;;;;;;0.52;0.30;;;;;;;;;;5035793;28;20033;-76
2021/05/10 03:30:28;;;;;;;0.30;0.30;;;;;;;;;;5030941;28;20029;-76
2021/05/10 03:32:54;;;;;;;0.90;0.40;;;;;;;;;;5033500;28;20061;-76
2021/05/10 03:35:21;;;;;;;1.35;0.60;;;;;;;;;;5038296;28;20040;-76
2021/05/10 03:37:47;;;;;;;0.73;0.50;;;;;;;;;;5036104;28;20540;-77
2021/05/10 03:40:15;;;;;;;0.52;0.52;;;;;;;;;;5035914;28;20036;-76
2021/05/10 03:42:42;;;;;;;0.80;0.70;;;;;;;;;;5035222;28;20022;-77
2021/05/10 03:45:11;;;;;;;0.80;0.70;;;;;;;;;;5035415;28;20136;-76
2021/05/10 03:47:41;;;;;;;0.80;0.50;;;;;;;;;;5035708;28;20375;-77
2021/05/10 03:50:11;;;;;;;1.13;0.75;;;;;;;;;;5036049;28;20056;-76
2021/05/10 03:52:37;;;;;;;0.30;0.30;;;;;;;;;;5035089;28;20017;-76
2021/05/10 03:55:03;;;;;;;1.65;0.73;;;;;;;;;;5034583;28;20036;-77
2021/05/10 03:57:29;;;;;;;1.40;0.50;;;;;;;;;;5035350;28;20033;-76
2021/05/10 03:59:56;;;;;;;0.40;0.40;;;;;;;;;;5034588;28;20037;-76
2021/05/10 04:02:22;;;;;;;0.85;0.57;;;;;;;;;;5025632;28;20033;-77
2021/05/10 04:04:59;;;;;;;0.50;0.50;;;;;;;;;;5034490;28;20028;-76
2021/05/10 04:07:40;;;;;;;0.63;0.55;;;;;;;;;;5028994;28;20028;-75
2021/05/10 04:15:29;;;;;;;0.95;0.40;;;;;;;;;;5028634;28;20437;-75
2021/05/10 04:17:55;;;;;;;0.25;0.25;;;;;;;;;;5022408;28;20045;-74
2021/05/10 04:20:22;;;;;;;2.03;0.38;;;;;;;;;;5015299;28;20018;-76
2021/05/10 04:22:48;;;;;;;0.68;0.60;;;;;;;;;;5013789;28;20018;-76
2021/05/10 04:25:14;;;;;;;0.30;0.30;;;;;;;;;;5028455;28;20032;-75
2021/05/10 04:27:40;;;;;;;1.20;0.30;;;;;;;;;;5034399;28;20029;-76
2021/05/10 04:30:07;;;;;;;0.20;0.20;;;;;;;;;;5032564;28;20030;-76
2021/05/10 04:32:33;;;;;;;1.23;0.30;;;;;;;;;;5017012;28;20076;-75
2021/05/10 04:34:59;;;;;;;0.75;0.47;;;;;;;;;;5014380;28;20112;-75
2021/05/10 04:37:25;;;;;;;0.95;0.30;;;;;;;;;;5014208;28;20030;-75
2021/05/10 04:39:51;;;;;;;0.30;0.30;;;;;;;;;;5014109;28;20109;-75
2021/05/10 04:42:17;;;;;;;0.40;0.40;;;;;;;;;;5024874;28;20037;-76
2021/05/10 04:44:43;;;;;;;0.50;0.50;;;;;;;;;;5033973;28;20032;-75
2021/05/10 04:47:09;;;;;;;0.47;0.47;;;;;;;;;;5033588;28;20027;-74
2021/05/10 04:49:35;;;;;;;3.33;0.60;;;;;;;;;;5033766;28;20512;-75
2021/05/10 04:52:01;;;;;;;0.75;0.60;;;;;;;;;;5033894;28;20037;-75
2021/05/10 04:54:27;;;;;;;1.15;0.40;;;;;;;;;;5033301;28;20025;-74
2021/05/10 04:56:53;;;;;;;1.40;0.70;;;;;;;;;;5033659;28;20087;-73
2021/05/10 04:59:21;;;;;;;2.25;0.63;;;;;;;;;;5033015;28;20060;-75
2021/05/10 05:01:47;;;;;;;0.70;0.55;;;;;;;;;;5022991;28;20029;-74
2021/05/10 05:04:13;;;;;;;2.88;0.80;;;;;;;;;;5032224;28;20029;-74
2021/05/10 05:06:39;;;;;;;1.05;0.70;;;;;;;;;;5034205;28;20467;-74
2021/05/10 05:09:05;;;;;;;2.80;0.70;;;;;;;;;;5033266;28;20437;-74
2021/05/10 05:11:31;;;;;;;0.77;0.60;;;;;;;;;;5033101;28;20399;-74
2021/05/10 05:13:58;;;;;;;0.80;0.80;;;;;;;;;;5033275;28;20026;-74
2021/05/10 05:16:24;;;;;;;0.70;0.50;;;;;;;;;;5033362;28;20518;-75
2021/05/10 05:18:50;;;;;;;0.75;0.60;;;;;;;;;;5033309;28;20506;-75
2021/05/10 05:21:16;;;;;;;0.68;0.68;;;;;;;;;;5032980;28;20021;-75
2021/05/10 05:23:42;;;;;;;0.93;0.60;;;;;;;;;;5032255;28;20029;-75
2021/05/10 05:26:08;;;;;;;1.13;0.60;;;;;;;;;;5031743;28;20021;-74
2021/05/10 05:28:34;;;;;;;0.88;0.77;;;;;;;;;;5031876;28;20032;-74
2021/05/10 05:31:01;;;;;;;1.48;1.00;;;;;;;;;;5025044;28;20486;-74
2021/05/10 05:33:28;;;;;;;0.80;0.65;;;;;;;;;;5032736;28;20049;-75
2021/05/10 05:35:55;;;;;;;0.70;0.50;;;;;;;;;;5032907;28;20089;-74
2021/05/10 05:38:21;;;;;;;1.13;0.70;;;;;;;;;;5032917;28;20121;-74
2021/05/10 05:40:48;;;;;;;1.15;0.50;;;;;;;;;;5032803;28;20071;-74
2021/05/10 05:43:14;;;;;;;1.23;0.65;;;;;;;;;;5031871;28;20040;-74
2021/05/10 05:45:42;;;;;;;1.20;1.02;;;;;;;;;;5033073;28;20022;-74
2021/05/10 05:48:09;;;;;;;2.83;0.70;;;;;;;;;;5032719;28;20026;-74
2021/05/10 05:50:35;;;;;;;0.50;0.50;;;;;;;;;;5022547;28;20033;-74
2021/05/10 05:53:02;;;;;;;1.90;0.70;;;;;;;;;;5014260;28;20022;-74
2021/05/10 05:55:28;;;;;;;1.70;0.88;;;;;;;;;;5033239;28;20033;-74
2021/05/10 05:57:55;;;;;;;0.98;0.65;;;;;;;;;;5032319;28;20068;-74
2021/05/10 06:00:21;;;;;;;0.77;0.55;;;;;;;;;;5031596;28;20383;-75
2021/05/10 06:02:47;;;;;;;0.95;0.70;;;;;;;;;;5017051;28;20033;-74
2021/05/10 06:05:14;;;;;;;0.82;0.82;;;;;;;;;;5012763;28;20105;-74
2021/05/10 06:07:41;;;;;;;1.27;0.82;;;;;;;;;;5012938;28;20026;-74
2021/05/10 06:10:08;;;;;;;0.55;0.55;;;;;;;;;;5012663;28;20025;-74
2021/05/10 06:12:34;;;;;;;1.23;0.85;;;;;;;;;;5031680;28;20026;-74
2021/05/10 06:15:00;;;;;;;0.68;0.68;;;;;;;;;;5032081;28;20025;-74
2021/05/10 06:17:26;;;;;;;1.55;0.65;;;;;;;;;;5031155;28;20025;-74
2021/05/10 06:19:53;;;;;;;0.90;0.90;;;;;;;;;;5031774;28;20025;-75
2021/05/10 06:22:19;;;;;;;0.90;0.90;;;;;;;;;;5031858;28;20022;-74
2021/05/10 06:24:45;;;;;;;0.80;0.80;;;;;;;;;;5031918;28;20029;-74
2021/05/10 06:27:11;;;;;;;0.85;0.85;;;;;;;;;;5030532;28;20048;-74
2021/05/10 06:29:37;;;;;;;3.08;1.27;;;;;;;;;;5031591;28;20171;-74
2021/05/10 06:32:04;;;;;;;0.98;0.93;;;;;;;;;;5021454;28;20029;-75
2021/05/10 06:34:30;;;;;;;1.00;0.90;;;;;;;;;;5011491;28;20026;-74
2021/05/10 06:36:56;;;;;;;1.35;1.00;;;;;;;;;;5012056;28;20029;-74
2021/05/10 06:39:22;;;;;;;0.98;0.88;;;;;;;;;;5017257;28;20033;-74
2021/05/10 06:41:48;;;;;;;1.42;0.75;;;;;;;;;;5031633;28;20056;-75
2021/05/10 06:44:14;;;;;;;0.90;0.90;;;;;;;;;;5031292;28;20087;-74
2021/05/10 06:46:40;;;;;;;0.70;0.70;;;;;;;;;;5033028;28;20022;-74
2021/05/10 06:49:06;;;;;;;1.70;0.98;;;;;;;;;;5036411;28;20030;-74
2021/05/10 06:51:33;;;;;;;2.17;1.17;;;;;;;;;;5036154;28;20033;-75
2021/05/10 06:53:59;;;;;;;1.45;0.75;;;;;;;;;;5035260;28;20467;-73
2021/05/10 06:56:25;;;;;;;1.25;0.90;;;;;;;;;;5035600;28;20079;-73
2021/05/10 06:58:51;;;;;;;2.13;0.98;;;;;;;;;;5035521;28;20029;-74
2021/05/10 07:01:17;;;;;;;0.80;0.77;;;;;;;;;;5023499;28;20021;-74
2021/05/10 07:03:43;;;;;;;1.70;1.02;;;;;;;;;;5022502;28;20030;-74
2021/05/10 07:06:09;;;;;;;1.67;1.10;;;;;;;;;;5001166;28;20021;-74
2021/05/10 07:08:35;;;;;;;1.95;1.08;;;;;;;;;;5015303;28;20029;-74
2021/05/10 07:11:01;;;;;;;1.60;0.88;;;;;;;;;;5026208;28;20029;-74
2021/05/10 07:13:28;;;;;;;2.80;1.02;;;;;;;;;;5034989;28;20018;-74
2021/05/10 07:15:54;;;;;;;1.23;1.02;;;;;;;;;;5035211;28;20044;-74
2021/05/10 07:18:20;;;;;;;3.38;0.82;;;;;;;;;;5026966;28;20025;-74
2021/05/10 07:20:46;;;;;;;2.17;1.00;;;;;;;;;;5025245;28;20029;-74
2021/05/10 07:23:14;;;;;;;1.60;1.10;;;;;;;;;;5028200;28;20032;-75
2021/05/10 07:25:41;;;;;;;2.10;0.80;;;;;;;;;;5033187;28;20018;-75
2021/05/10 07:28:08;;;;;;;2.17;0.90;;;;;;;;;;5035201;28;20021;-75
2021/05/10 07:30:35;;;;;;;1.30;0.65;;;;;;;;;;5026697;28;20034;-76
2021/05/10 07:33:01;;;;;;;0.70;0.70;;;;;;;;;;5032605;28;20111;-75
2021/05/10 07:35:27;;;;;;;2.38;1.35;;;;;;;;;;5035332;28;20436;-75
2021/05/10 07:37:53;;;;;;;1.10;0.93;;;;;;;;;;5017969;28;20038;-75
2021/05/10 07:40:22;;;;;;;0.90;0.90;;;;;;;;;;5015575;28;20057;-76
2021/05/10 07:42:48;;;;;;;1.52;0.60;;;;;;;;;;5032200;28;20018;-76
2021/05/10 07:45:14;;;;;;;0.82;0.80;;;;;;;;;;5035454;28;20049;-77
2021/05/10 07:47:41;;;;;;;2.10;0.85;;;;;;;;;;5036154;28;20033;-76
2021/05/10 07:50:07;;;;;;;3.00;0.70;;;;;;;;;;5036134;28;20029;-76
2021/05/10 07:52:33;;;;;;;1.50;0.77;;;;;;;;;;5035219;28;20034;-76
2021/05/10 07:54:59;;;;;;;0.85;0.63;;;;;;;;;;5027128;28;20073;-77
2021/05/10 07:57:26;;;;;;;2.10;1.15;;;;;;;;;;5023671;28;20054;-77
2021/05/10 07:59:53;;;;;;;2.65;1.00;;;;;;;;;;5018568;28;20029;-77
2021/05/10 08:02:22;;;;;;;2.35;0.88;;;;;;;;;;5032947;28;20024;-76
2021/05/10 08:04:49;;;;;;;3.58;0.95;;;;;;;;;;5034511;28;20097;-77
2021/05/10 08:07:15;;;;;;;3.78;1.10;;;;;;;;;;5033946;28;20033;-77
2021/05/10 08:09:41;;;;;;;2.10;1.10;;;;;;;;;;5034167;28;20025;-77
2021/05/10 08:12:08;;;;;;;2.10;0.95;;;;;;;;;;5034032;28;20037;-77
2021/05/10 08:14:34;;;;;;;4.10;0.90;;;;;;;;;;5033287;28;20040;-77
2021/05/10 08:17:00;;;;;;;0.85;0.60;;;;;;;;;;5035931;28;20057;-77
2021/05/10 08:19:27;;;;;;;1.83;1.20;;;;;;;;;;5035253;28;20018;-78
2021/05/10 08:21:53;;;;;;;2.50;1.17;;;;;;;;;;5035648;28;20114;-77
2021/05/10 08:24:19;;;;;;;1.95;1.02;;;;;;;;;;5029243;28;20028;-77
2021/05/10 08:26:46;;;;;;;1.00;0.75;;;;;;;;;;5022971;28;20028;-78
2021/05/10 08:29:12;;;;;;;6.68;1.10;;;;;;;;;;5035477;28;20025;-77
2021/05/10 08:31:38;;;;;;;2.30;0.82;;;;;;;;;;5028248;28;20029;-77
2021/05/10 08:34:04;;;;;;;2.47;0.85;;;;;;;;;;5034131;28;20022;-77
2021/05/10 08:36:30;;;;;;;3.30;0.70;;;;;;;;;;5034264;28;20390;-77
2021/05/10 08:38:56;;;;;;;2.28;0.88;;;;;;;;;;5035769;28;20029;-77
2021/05/10 08:41:22;;;;;;;2.25;1.00;;;;;;;;;;5034912;28;20025;-77
2021/05/10 08:43:48;;;;;;;1.88;0.95;;;;;;;;;;5029202;28;20082;-77
2021/05/10 08:46:14;;;;;;;1.77;1.05;;;;;;;;;;5027990;28;20053;-78
2021/05/10 08:48:40;;;;;;;2.85;1.30;;;;;;;;;;5036030;28;20120;-77
2021/05/10 08:51:06;;;;;;;1.20;0.75;;;;;;;;;;5036664;28;20034;-78
2021/05/10 08:53:40;;;;;;;1.85;1.00;;;;;;;;;;5034037;28;20073;-78
2021/05/10 08:56:07;;;;;;;1.50;0.80;;;;;;;;;;5022061;28;20809;-78
2021/05/10 08:58:40;;;;;;;1.92;0.75;;;;;;;;;;5028420;28;20033;-77
2021/05/10 09:01:07;;;;;;;2.70;0.90;;;;;;;;;;5026678;28;20110;-78
2021/05/10 09:03:45;;;;;;;1.00;0.80;;;;;;;;;;5033701;28;20605;-77
2021/05/10 09:06:12;;;;;;;1.30;0.75;;;;;;;;;;5035562;28;20022;-78
2021/05/10 09:08:48;;;;;;;1.13;1.00;;;;;;;;;;5031037;28;20025;-77
2021/05/10 09:11:19;;;;;;;2.15;0.88;;;;;;;;;;5022002;28;20096;-77
2021/05/10 09:13:46;;;;;;;2.90;0.82;;;;;;;;;;5017111;28;20486;-78
2021/05/10 09:16:13;;;;;;;4.10;1.10;;;;;;;;;;5018278;28;20026;-78
2021/05/10 09:18:40;;;;;;;1.17;0.90;;;;;;;;;;5014165;28;20440;-78
2021/05/10 09:21:22;;;;;;;2.15;1.33;;;;;;;;;;5023785;28;20028;-77
2021/05/10 09:23:48;;;;;;;2.70;0.90;;;;;;;;;;5032128;28;20029;-77
2021/05/10 09:26:26;;;;;;;1.23;0.90;;;;;;;;;;5017091;28;20462;-77
2021/05/10 09:28:52;;;;;;;2.00;0.85;;;;;;;;;;5018374;28;20027;-77
2021/05/10 09:31:18;;;;;;;1.05;0.77;;;;;;;;;;5024353;28;20018;-77
2021/05/10 09:33:46;;;;;;;1.73;0.98;;;;;;;;;;5033167;28;20489;-77
2021/05/10 09:36:12;;;;;;;2.80;1.00;;;;;;;;;;5026639;28;20026;-76
2021/05/10 09:38:39;;;;;;;1.85;1.30;;;;;;;;;;5033152;28;20034;-77
2021/05/10 09:41:07;;;;;;;1.60;0.98;;;;;;;;;;5033675;28;20540;-77
2021/05/10 09:43:35;;;;;;;1.98;1.15;;;;;;;;;;5027572;28;20030;-76
2021/05/10 09:46:14;;;;;;;2.75;0.95;;;;;;;;;;5034049;28;20028;-77
2021/05/10 09:48:42;;;;;;;1.55;0.80;;;;;;;;;;5034161;28;20021;-77
2021/05/10 09:51:08;;;;;;;3.40;1.40;;;;;;;;;;5033155;28;20447;-77
2021/05/10 09:53:36;;;;;;;1.13;0.90;;;;;;;;;;5033253;28;20026;-77
2021/05/10 09:56:02;;;;;;;2.75;1.25;;;;;;;;;;5030407;28;20022;-76
2021/05/10 09:58:42;;;;;;;4.18;1.20;;;;;;;;;;5015338;28;20029;-77
2021/05/10 10:01:08;;;;;;;3.70;1.60;;;;;;;;;;5017146;28;20049;-77
2021/05/10 10:03:42;;;;;;;1.85;1.00;;;;;;;;;;5014064;28;20050;-77
2021/05/10 10:06:09;;;;;;;9.70;1.50;;;;;;;;;;5013889;28;20022;-76
2021/05/10 10:08:36;;;;;;;1.75;0.95;;;;;;;;;;5013465;28;20064;-77
2021/05/10 10:11:03;;;;;;;2.40;1.10;;;;;;;;;;5020630;28;20057;-77
2021/05/10 10:13:29;;;;;;;2.47;1.25;;;;;;;;;;5031660;28;20029;-77
2021/05/10 10:15:57;;;;;;;5.13;1.35;;;;;;;;;;5032972;28;20527;-78
2021/05/10 10:18:24;;;;;;;4.53;1.80;;;;;;;;;;5032619;28;20044;-77
2021/05/10 10:20:50;;;;;;;1.27;1.15;;;;;;;;;;5015570;28;20076;-78
2021/05/10 10:23:17;;;;;;;2.10;1.08;;;;;;;;;;5012166;28;20467;-78
2021/05/10 10:25:44;;;;;;;2.05;1.23;;;;;;;;;;5016158;28;20502;-78
2021/05/10 10:28:13;;;;;;;3.15;0.90;;;;;;;;;;5026089;28;20386;-77
2021/05/10 10:30:41;;;;;;;2.00;1.38;;;;;;;;;;5024863;28;20033;-77
2021/05/10 10:33:09;;;;;;;3.10;1.42;;;;;;;;;;5024209;28;20053;-77
2021/05/10 10:35:37;;;;;;;1.55;0.90;;;;;;;;;;5029357;28;20025;-77
2021/05/10 10:38:05;;;;;;;2.63;0.88;;;;;;;;;;5026315;28;20045;-77
2021/05/10 10:40:31;;;;;;;1.27;1.05;;;;;;;;;;5021370;28;20107;-77
2021/05/10 10:43:16;;;;;;;3.28;2.30;;;;;;;;;;5012998;28;20022;-78
2021/05/10 10:45:42;;;;;;;2.33;1.73;;;;;;;;;;5017887;28;20028;-77
2021/05/10 10:48:08;;;;;;;2.78;1.48;;;;;;;;;;5031984;28;20080;-77
2021/05/10 10:50:54;;;;;;;3.85;2.35;;;;;;;;;;5033836;28;20576;-79
2021/05/10 10:53:40;;;;;;;2.60;1.88;;;;;;;;;;5033628;28;20029;-76
2021/05/10 10:56:06;;;;;;;2.92;1.10;;;;;;;;;;5019070;28;20026;-76
2021/05/10 10:58:32;;;;;;;2.17;1.42;;;;;;;;;;5031850;28;20058;-75
2021/05/10 11:00:59;;;;;;;2.22;1.20;;;;;;;;;;5035221;28;20025;-76
2021/05/10 11:03:26;;;;;;;4.07;1.83;;;;;;;;;;5015500;28;20025;-75
2021/05/10 11:05:52;;;;;;;3.38;1.30;;;;;;;;;;5016893;28;20486;-77
2021/05/10 11:08:38;;;;;;;1.50;1.40;;;;;;;;;;5027497;28;20042;-76
2021/05/10 11:11:04;;;;;;;1.50;1.38;;;;;;;;;;5022874;28;20483;-77
2021/05/10 11:13:36;;;;;;;1.40;1.30;;;;;;;;;;5014042;28;20026;-77
2021/05/10 11:16:09;;;;;;;2.17;0.90;;;;;;;;;;5020893;28;20018;-77
2021/05/10 11:18:43;;;;;;;4.13;0.90;;;;;;;;;;5031467;28;20029;-77
2021/05/10 11:21:10;;;;;;;1.88;1.05;;;;;;;;;;5035091;28;20028;-78
2021/05/10 11:23:38;;;;;;;1.05;0.95;;;;;;;;;;5030817;28;20108;-77
2021/05/10 11:26:08;;;;;;;2.10;1.15;;;;;;;;;;5017397;28;20029;-78
2021/05/10 11:28:34;;;;;;;1.00;0.90;;;;;;;;;;5019859;28;20099;-78
2021/05/10 11:31:01;;;;;;;3.70;1.33;;;;;;;;;;5025541;28;20103;-77
2021/05/10 11:33:53;;;;;;;2.13;1.33;;;;;;;;;;5034829;28;20160;-77
2021/05/10 11:36:23;;;;;;;1.80;1.02;;;;;;;;;;5014421;28;20064;-77
2021/05/10 11:39:04;;;;;;;0.68;0.68;;;;;;;;;;5019472;28;20018;-77
2021/05/10 11:41:30;;;;;;;1.60;0.77;;;;;;;;;;5017572;28;20075;-77
2021/05/10 11:44:01;;;;;;;4.47;1.33;;;;;;;;;;5016089;28;20144;-78
2021/05/10 11:46:27;;;;;;;;;;;;;;;;;;5017153;28;20022;-78
2021/05/10 11:48:53;;;;;;;1.85;1.20;;;;;;;;;;5016996;28;20377;-77
2021/05/10 11:51:22;;;;;;;2.70;1.38;;;;;;;;;;5018937;28;20714;-78
2021/05/10 11:54:03;;;;;;;4.93;1.20;;;;;;;;;;5036121;28;20336;-76
2021/05/10 11:56:30;;;;;;;3.85;1.63;;;;;;;;;;5025579;28;20069;-76
2021/05/10 11:59:12;;;;;;;4.50;1.48;;;;;;;;;;5025431;28;20088;-76
2021/05/10 12:01:42;;;;;;;2.95;1.77;;;;;;;;;;5022362;28;20068;-76
2021/05/10 12:04:25;;;;;;;5.78;1.33;;;;;;;;;;5017320;28;20042;-78
2021/05/10 12:06:51;;;;;;;1.20;1.08;;;;;;;;;;5017907;28;20030;-77
2021/05/10 12:09:36;;;;;;;2.65;1.35;;;;;;;;;;5026352;28;20044;-76
2021/05/10 12:12:14;;;;;;;1.20;1.10;;;;;;;;;;5022393;28;20032;-77
2021/05/10 12:14:42;;;;;;;2.60;0.95;;;;;;;;;;5026639;28;20053;-78
2021/05/10 12:17:09;;;;;;;1.52;0.80;;;;;;;;;;5030666;28;20035;-77
2021/05/10 12:19:48;;;;;;;3.58;1.20;;;;;;;;;;5030238;28;20030;-78
2021/05/10 12:22:14;;;;;;;1.45;0.98;;;;;;;;;;5032646;28;20386;-77
2021/05/10 12:24:59;;;;;;;1.05;0.90;;;;;;;;;;5035021;28;20076;-77
2021/05/10 12:27:26;;;;;;;1.83;1.05;;;;;;;;;;5021379;28;20483;-78
2021/05/10 12:29:53;;;;;;;2.80;1.23;;;;;;;;;;5024099;28;20553;-76
2021/05/10 12:32:19;;;;;;;2.15;1.00;;;;;;;;;;5026721;28;20383;-77
2021/05/10 12:34:45;;;;;;;5.95;1.02;;;;;;;;;;5019795;28;20056;-77
2021/05/10 12:37:11;;;;;;;1.20;0.85;;;;;;;;;;5028664;28;20033;-77
2021/05/10 12:39:38;;;;;;;2.22;1.27;;;;;;;;;;5025697;28;20030;-78
2021/05/10 12:42:14;;;;;;;1.50;1.10;;;;;;;;;;5026648;28;20420;-78
2021/05/10 12:44:40;;;;;;;2.83;1.17;;;;;;;;;;5026369;28;20030;-78
2021/05/10 12:47:07;;;;;;;1.25;1.10;;;;;;;;;;5023960;28;20033;-78
2021/05/10 12:49:33;;;;;;;2.72;1.38;;;;;;;;;;5018491;28;20034;-77
2021/05/10 12:51:59;;;;;;;4.30;0.82;;;;;;;;;;5028666;28;20032;-76
2021/05/10 12:54:25;;;;;;;4.22;1.38;;;;;;;;;;5033480;28;20041;-76
2021/05/10 12:56:52;;;;;;;3.55;1.38;;;;;;;;;;5034650;28;20414;-76
2021/05/10 12:59:18;;;;;;;3.67;1.00;;;;;;;;;;5035275;28;20056;-78
2021/05/10 13:01:46;;;;;;;2.33;1.13;;;;;;;;;;5030751;28;20035;-78
2021/05/10 13:04:15;;;;;;;3.17;1.40;;;;;;;;;;5023850;28;20075;-76
2021/05/10 13:06:44;;;;;;;3.78;1.73;;;;;;;;;;5026734;28;20026;-77
2021/05/10 13:09:27;;;;;;;1.92;1.02;;;;;;;;;;5017692;28;20026;-78
2021/05/10 13:11:58;;;;;;;1.00;0.90;;;;;;;;;;5034211;28;20021;-78
2021/05/10 13:33:27;;;;;;;3.55;0.98;;;;;;;;;;5016477;28;20041;-77
2021/05/10 13:38:19;;;;;;;2.08;1.13;;;;;;;;;;5027560;28;20104;-77
2021/05/10 13:40:46;;;;;;;5.07;1.50;;;;;;;;;;5037649;28;20022;-78
2021/05/10 13:45:53;;;;;;;4.22;1.35;;;;;;;;;;5036492;28;20646;-78
2021/05/10 13:48:20;;;;;;;2.08;1.20;;;;;;;;;;5025557;28;20072;-77
2021/05/10 13:50:46;;;;;;;6.10;1.63;;;;;;;;;;5027466;28;20509;-77
2021/05/10 13:53:12;;;;;;;2.55;1.75;;;;;;;;;;5023656;28;20120;-76
2021/05/10 13:55:38;;;;;;;2.67;1.33;;;;;;;;;;5013789;28;20026;-77
2021/05/10 13:58:04;;;;;;;2.75;1.52;;;;;;;;;;5023377;28;20036;-77
2021/05/10 14:00:30;;;;;;;7.32;1.85;;;;;;;;;;5022728;28;20037;-77
2021/05/10 14:02:56;;;;;;;5.38;1.77;;;;;;;;;;5023812;28;20618;-77
2021/05/10 14:05:22;;;;;;;3.20;1.25;;;;;;;;;;5020237;28;20022;-77
2021/05/10 14:07:48;;;;;;;2.80;1.27;;;;;;;;;;5025288;28;20489;-76
2021/05/10 14:10:16;;;;;;;4.97;1.60;;;;;;;;;;5040637;28;20085;-76
2021/05/10 14:12:42;;;;;;;7.70;1.60;;;;;;;;;;5034438;28;20493;-77
2021/05/10 14:15:08;;;;;;;1.83;1.38;;;;;;;;;;5034409;28;20037;-77
2021/05/10 14:17:34;;;;;;;3.75;2.08;;;;;;;;;;5033334;28;20072;-78
2021/05/10 14:20:02;;;;;;;2.47;1.65;;;;;;;;;;5032976;28;20021;-77
2021/05/10 14:22:28;;;;;;;3.28;1.40;;;;;;;;;;5020174;28;20160;-78
2021/05/10 14:24:54;;;;;;;2.20;1.30;;;;;;;;;;5021667;28;20058;-78
2021/05/10 14:27:21;;;;;;;4.28;1.52;;;;;;;;;;5031509;28;20133;-78
2021/05/10 14:29:47;;;;;;;4.68;1.30;;;;;;;;;;5025177;28;20026;-77
2021/05/10 14:32:13;;;;;;;4.90;1.65;;;;;;;;;;5022339;28;20039;-78
2021/05/10 14:34:39;;;;;;;4.43;2.15;;;;;;;;;;5014786;28;20036;-79
2021/05/10 14:37:06;;;;;;;2.05;1.30;;;;;;;;;;5015137;28;20491;-77
2021/05/10 14:39:32;;;;;;;3.83;1.40;;;;;;;;;;5029276;28;20545;-77
2021/05/10 14:41:58;;;;;;;6.43;2.15;;;;;;;;;;5014254;28;20537;-78
2021/05/10 14:44:24;;;;;;;3.63;1.40;;;;;;;;;;5020875;28;20099;-78
2021/05/10 14:46:51;;;;;;;6.47;1.27;;;;;;;;;;5011877;28;20415;-76
2021/05/10 14:49:17;;;;;;;3.40;1.52;;;;;;;;;;5012115;28;20022;-77
2021/05/10 14:51:43;;;;;;;3.22;1.52;;;;;;;;;;5019273;28;20414;-78
2021/05/10 14:54:11;;;;;;;3.75;1.45;;;;;;;;;;5024205;28;20148;-78
2021/05/10 14:56:37;;;;;;;6.28;1.50;;;;;;;;;;5024716;28;20398;-77
2021/05/10 14:59:04;;;;;;;3.58;1.20;;;;;;;;;;5022637;28;20132;-76
2021/05/10 15:01:30;;;;;;;3.63;1.42;;;;;;;;;;5024585;28;20025;-77
2021/05/10 15:03:57;;;;;;;5.13;1.85;;;;;;;;;;5031357;28;20490;-77
2021/05/10 15:06:23;;;;;;;2.83;1.10;;;;;;;;;;5033729;28;20018;-77
2021/05/10 15:08:49;;;;;;;3.00;1.30;;;;;;;;;;5038762;28;20108;-78
2021/05/10 15:11:15;;;;;;;5.03;1.80;;;;;;;;;;5028759;28;20030;-78
2021/05/10 15:13:43;;;;;;;2.63;1.30;;;;;;;;;;5017744;28;20080;-77